sensor_id;sensor_type;location;lat;lon;timestamp;temperature;humidity
64689;DHT22;62504;46.070;14.492;2022-08-23T00:01:12;18.60;99.90
64689;DHT22;62504;46.070;14.492;2022-08-23T00:03:39;18.30;99.90
64689;DHT22;62504;46.070;14.492;2022-08-23T00:06:05;18.30;99.90
64689;DHT22;62504;46.070;14.492;2022-08-23T00:08:31;18.40;99.90
64689;DHT22;62504;46.070;14.492;2022-08-23T00:10:57;18.50;99.90
64689;DHT22;62504;46.070;14.492;2022-08-23T00:13:23;18.50;99.90
64689;DHT22;62504;46.070;14.492;2022-08-23T00:15:49;18.50;99.90
64689;DHT22;62504;46.070;14.492;2022-08-23T00:18:15;18.30;99.90
64689;DHT22;62504;46.070;14.492;2022-08-23T00:20:41;18.50;99.90
64689;DHT22;62504;46.070;14.492;2022-08-23T00:23:07;18.30;99.90
64689;DHT22;62504;46.070;14.492;2022-08-23T00:25:33;18.10;99.90
64689;DHT22;62504;46.070;14.492;2022-08-23T00:27:59;18.10;99.90
64689;DHT22;62504;46.070;14.492;2022-08-23T00:30:25;18.30;99.90
64689;DHT22;62504;46.070;14.492;2022-08-23T00:32:51;18.10;99.90
64689;DHT22;62504;46.070;14.492;2022-08-23T00:35:17;18.10;99.90
64689;DHT22;62504;46.070;14.492;2022-08-23T00:37:43;18.00;99.90
64689;DHT22;62504;46.070;14.492;2022-08-23T00:40:11;18.00;99.90
64689;DHT22;62504;46.070;14.492;2022-08-23T00:42:51;18.10;99.90
64689;DHT22;62504;46.070;14.492;2022-08-23T00:46:22;18.10;99.90
64689;DHT22;62504;46.070;14.492;2022-08-23T00:48:46;18.30;99.90
64689;DHT22;62504;46.070;14.492;2022-08-23T00:51:19;18.10;99.90
64689;DHT22;62504;46.070;14.492;2022-08-23T00:53:49;18.00;99.90
64689;DHT22;62504;46.070;14.492;2022-08-23T00:56:19;17.80;99.90
64689;DHT22;62504;46.070;14.492;2022-08-23T00:58:47;18.00;99.90
64689;DHT22;62504;46.070;14.492;2022-08-23T01:01:15;18.00;99.90
64689;DHT22;62504;46.070;14.492;2022-08-23T01:03:42;18.20;99.90
64689;DHT22;62504;46.070;14.492;2022-08-23T01:06:13;18.20;99.90
64689;DHT22;62504;46.070;14.492;2022-08-23T01:08:44;18.00;99.90
64689;DHT22;62504;46.070;14.492;2022-08-23T01:11:20;17.80;99.90
64689;DHT22;62504;46.070;14.492;2022-08-23T01:14:02;18.00;99.90
64689;DHT22;62504;46.070;14.492;2022-08-23T01:16:35;18.10;99.90
64689;DHT22;62504;46.070;14.492;2022-08-23T01:19:03;18.00;99.90
64689;DHT22;62504;46.070;14.492;2022-08-23T01:21:41;18.10;99.90
64689;DHT22;62504;46.070;14.492;2022-08-23T01:24:08;17.90;99.90
64689;DHT22;62504;46.070;14.492;2022-08-23T01:26:35;17.90;99.90
64689;DHT22;62504;46.070;14.492;2022-08-23T01:29:04;17.90;99.90
64689;DHT22;62504;46.070;14.492;2022-08-23T01:31:31;17.80;99.90
64689;DHT22;62504;46.070;14.492;2022-08-23T01:34:03;17.90;99.90
64689;DHT22;62504;46.070;14.492;2022-08-23T01:36:29;17.80;99.90
64689;DHT22;62504;46.070;14.492;2022-08-23T01:38:55;17.70;99.90
64689;DHT22;62504;46.070;14.492;2022-08-23T01:41:21;17.80;99.90
64689;DHT22;62504;46.070;14.492;2022-08-23T01:43:48;17.60;99.90
64689;DHT22;62504;46.070;14.492;2022-08-23T01:46:19;17.70;99.90
64689;DHT22;62504;46.070;14.492;2022-08-23T01:48:47;17.60;99.90
64689;DHT22;62504;46.070;14.492;2022-08-23T01:51:15;17.60;99.90
64689;DHT22;62504;46.070;14.492;2022-08-23T01:53:42;17.70;99.90
64689;DHT22;62504;46.070;14.492;2022-08-23T01:56:08;17.80;99.90
64689;DHT22;62504;46.070;14.492;2022-08-23T01:58:35;17.80;99.90
64689;DHT22;62504;46.070;14.492;2022-08-23T02:01:02;18.00;99.90
64689;DHT22;62504;46.070;14.492;2022-08-23T02:03:29;18.10;99.90
64689;DHT22;62504;46.070;14.492;2022-08-23T02:05:55;17.60;99.90
64689;DHT22;62504;46.070;14.492;2022-08-23T02:08:21;17.50;99.90
64689;DHT22;62504;46.070;14.492;2022-08-23T02:11:14;17.80;99.90
64689;DHT22;62504;46.070;14.492;2022-08-23T02:13:40;18.00;99.90
64689;DHT22;62504;46.070;14.492;2022-08-23T02:16:06;18.00;99.90
64689;DHT22;62504;46.070;14.492;2022-08-23T02:18:33;17.60;99.90
64689;DHT22;62504;46.070;14.492;2022-08-23T02:20:58;17.50;99.90
64689;DHT22;62504;46.070;14.492;2022-08-23T02:23:25;17.50;99.90
64689;DHT22;62504;46.070;14.492;2022-08-23T02:25:51;17.50;99.90
64689;DHT22;62504;46.070;14.492;2022-08-23T02:28:21;17.60;99.90
64689;DHT22;62504;46.070;14.492;2022-08-23T02:30:48;17.80;99.90
64689;DHT22;62504;46.070;14.492;2022-08-23T02:33:14;18.10;99.90
64689;DHT22;62504;46.070;14.492;2022-08-23T02:35:40;17.80;99.90
64689;DHT22;62504;46.070;14.492;2022-08-23T02:38:08;17.60;99.90
64689;DHT22;62504;46.070;14.492;2022-08-23T02:40:36;17.80;99.90
64689;DHT22;62504;46.070;14.492;2022-08-23T02:43:04;18.00;99.90
64689;DHT22;62504;46.070;14.492;2022-08-23T02:45:31;18.20;99.90
64689;DHT22;62504;46.070;14.492;2022-08-23T02:47:57;18.20;99.90
64689;DHT22;62504;46.070;14.492;2022-08-23T02:50:25;18.20;99.90
64689;DHT22;62504;46.070;14.492;2022-08-23T02:52:52;18.40;99.90
64689;DHT22;62504;46.070;14.492;2022-08-23T02:55:18;18.30;99.90
64689;DHT22;62504;46.070;14.492;2022-08-23T02:57:43;18.00;99.90
64689;DHT22;62504;46.070;14.492;2022-08-23T03:00:10;18.00;99.90
64689;DHT22;62504;46.070;14.492;2022-08-23T03:02:37;18.00;99.90
64689;DHT22;62504;46.070;14.492;2022-08-23T03:05:04;18.00;99.90
64689;DHT22;62504;46.070;14.492;2022-08-23T03:07:30;18.00;99.90
64689;DHT22;62504;46.070;14.492;2022-08-23T03:09:56;17.80;99.90
64689;DHT22;62504;46.070;14.492;2022-08-23T03:12:22;18.00;99.90
64689;DHT22;62504;46.070;14.492;2022-08-23T03:14:49;18.00;99.90
64689;DHT22;62504;46.070;14.492;2022-08-23T03:17:16;18.20;99.90
64689;DHT22;62504;46.070;14.492;2022-08-23T03:19:42;18.20;99.90
64689;DHT22;62504;46.070;14.492;2022-08-23T03:22:08;18.30;99.90
64689;DHT22;62504;46.070;14.492;2022-08-23T03:24:34;18.30;99.90
64689;DHT22;62504;46.070;14.492;2022-08-23T03:27:01;18.10;99.90
64689;DHT22;62504;46.070;14.492;2022-08-23T03:29:27;18.10;99.90
64689;DHT22;62504;46.070;14.492;2022-08-23T03:31:53;18.10;99.90
64689;DHT22;62504;46.070;14.492;2022-08-23T03:34:19;18.00;99.90
64689;DHT22;62504;46.070;14.492;2022-08-23T03:36:44;17.90;99.90
64689;DHT22;62504;46.070;14.492;2022-08-23T03:39:10;17.60;99.90
64689;DHT22;62504;46.070;14.492;2022-08-23T03:41:36;17.40;99.90
64689;DHT22;62504;46.070;14.492;2022-08-23T03:44:02;17.60;99.90
64689;DHT22;62504;46.070;14.492;2022-08-23T03:46:28;17.50;99.90
64689;DHT22;62504;46.070;14.492;2022-08-23T03:48:56;17.60;99.90
64689;DHT22;62504;46.070;14.492;2022-08-23T03:51:24;17.90;99.90
64689;DHT22;62504;46.070;14.492;2022-08-23T03:53:50;18.00;99.90
64689;DHT22;62504;46.070;14.492;2022-08-23T03:56:35;17.80;99.90
64689;DHT22;62504;46.070;14.492;2022-08-23T03:59:08;17.80;99.90
64689;DHT22;62504;46.070;14.492;2022-08-23T04:01:34;18.00;99.90
64689;DHT22;62504;46.070;14.492;2022-08-23T04:04:00;18.10;99.90
64689;DHT22;62504;46.070;14.492;2022-08-23T04:06:27;17.90;99.90
64689;DHT22;62504;46.070;14.492;2022-08-23T04:08:54;17.50;99.90
64689;DHT22;62504;46.070;14.492;2022-08-23T04:11:20;17.60;99.90
64689;DHT22;62504;46.070;14.492;2022-08-23T04:13:46;17.70;99.90
64689;DHT22;62504;46.070;14.492;2022-08-23T04:16:12;17.70;99.90
64689;DHT22;62504;46.070;14.492;2022-08-23T04:18:38;17.90;99.90
64689;DHT22;62504;46.070;14.492;2022-08-23T04:21:08;17.80;99.90
64689;DHT22;62504;46.070;14.492;2022-08-23T04:23:37;17.90;99.90
64689;DHT22;62504;46.070;14.492;2022-08-23T04:26:04;18.00;99.90
64689;DHT22;62504;46.070;14.492;2022-08-23T04:28:31;17.90;99.90
64689;DHT22;62504;46.070;14.492;2022-08-23T04:30:57;17.90;99.90
64689;DHT22;62504;46.070;14.492;2022-08-23T04:33:28;17.70;99.90
64689;DHT22;62504;46.070;14.492;2022-08-23T04:35:56;17.60;99.90
64689;DHT22;62504;46.070;14.492;2022-08-23T04:38:22;17.60;99.90
64689;DHT22;62504;46.070;14.492;2022-08-23T04:40:48;17.60;99.90
64689;DHT22;62504;46.070;14.492;2022-08-23T04:43:32;17.80;99.90
64689;DHT22;62504;46.070;14.492;2022-08-23T04:45:57;17.80;99.90
64689;DHT22;62504;46.070;14.492;2022-08-23T04:48:23;17.80;99.90
64689;DHT22;62504;46.070;14.492;2022-08-23T04:50:49;17.80;99.90
64689;DHT22;62504;46.070;14.492;2022-08-23T04:53:15;18.00;99.90
64689;DHT22;62504;46.070;14.492;2022-08-23T04:55:41;17.70;99.90
64689;DHT22;62504;46.070;14.492;2022-08-23T04:58:07;17.70;99.90
64689;DHT22;62504;46.070;14.492;2022-08-23T05:00:33;17.80;99.90
64689;DHT22;62504;46.070;14.492;2022-08-23T05:02:59;18.00;99.90
64689;DHT22;62504;46.070;14.492;2022-08-23T05:05:25;17.80;99.90
64689;DHT22;62504;46.070;14.492;2022-08-23T05:07:52;17.90;99.90
64689;DHT22;62504;46.070;14.492;2022-08-23T05:10:18;17.70;99.90
64689;DHT22;62504;46.070;14.492;2022-08-23T05:12:44;17.70;99.90
64689;DHT22;62504;46.070;14.492;2022-08-23T05:15:10;17.60;99.90
64689;DHT22;62504;46.070;14.492;2022-08-23T05:17:36;17.70;99.90
64689;DHT22;62504;46.070;14.492;2022-08-23T05:20:04;18.00;99.90
64689;DHT22;62504;46.070;14.492;2022-08-23T05:22:32;18.10;99.90
64689;DHT22;62504;46.070;14.492;2022-08-23T05:24:58;17.80;99.90
64689;DHT22;62504;46.070;14.492;2022-08-23T05:27:24;17.50;99.90
64689;DHT22;62504;46.070;14.492;2022-08-23T05:29:50;17.70;99.90
64689;DHT22;62504;46.070;14.492;2022-08-23T05:32:19;17.90;99.90
64689;DHT22;62504;46.070;14.492;2022-08-23T05:34:45;18.20;99.90
64689;DHT22;62504;46.070;14.492;2022-08-23T05:37:11;18.30;99.90
64689;DHT22;62504;46.070;14.492;2022-08-23T05:39:37;18.20;99.90
64689;DHT22;62504;46.070;14.492;2022-08-23T05:42:12;18.30;99.90
64689;DHT22;62504;46.070;14.492;2022-08-23T05:44:38;18.30;99.90
64689;DHT22;62504;46.070;14.492;2022-08-23T05:47:08;18.20;99.90
64689;DHT22;62504;46.070;14.492;2022-08-23T05:49:35;18.40;99.90
64689;DHT22;62504;46.070;14.492;2022-08-23T05:52:02;18.50;99.90
64689;DHT22;62504;46.070;14.492;2022-08-23T05:54:28;18.40;99.90
64689;DHT22;62504;46.070;14.492;2022-08-23T05:56:54;18.40;99.90
64689;DHT22;62504;46.070;14.492;2022-08-23T05:59:20;18.50;99.90
64689;DHT22;62504;46.070;14.492;2022-08-23T06:01:47;18.50;99.90
64689;DHT22;62504;46.070;14.492;2022-08-23T06:04:13;18.50;99.90
64689;DHT22;62504;46.070;14.492;2022-08-23T06:06:40;18.50;99.90
64689;DHT22;62504;46.070;14.492;2022-08-23T06:09:09;18.40;99.90
64689;DHT22;62504;46.070;14.492;2022-08-23T06:11:35;18.00;99.90
64689;DHT22;62504;46.070;14.492;2022-08-23T06:14:03;18.00;99.90
64689;DHT22;62504;46.070;14.492;2022-08-23T06:16:35;18.10;99.90
64689;DHT22;62504;46.070;14.492;2022-08-23T06:19:02;18.10;99.90
64689;DHT22;62504;46.070;14.492;2022-08-23T06:21:29;17.60;99.90
64689;DHT22;62504;46.070;14.492;2022-08-23T06:23:55;17.70;99.90
64689;DHT22;62504;46.070;14.492;2022-08-23T06:26:33;17.90;99.90
64689;DHT22;62504;46.070;14.492;2022-08-23T06:29:03;18.10;99.90
64689;DHT22;62504;46.070;14.492;2022-08-23T06:31:30;18.10;99.90
64689;DHT22;62504;46.070;14.492;2022-08-23T06:34:26;18.40;99.90
64689;DHT22;62504;46.070;14.492;2022-08-23T06:36:56;18.70;99.90
64689;DHT22;62504;46.070;14.492;2022-08-23T06:39:24;18.70;99.90
64689;DHT22;62504;46.070;14.492;2022-08-23T06:41:51;18.70;99.90
64689;DHT22;62504;46.070;14.492;2022-08-23T06:44:18;18.20;99.90
64689;DHT22;62504;46.070;14.492;2022-08-23T06:46:44;18.30;99.90
64689;DHT22;62504;46.070;14.492;2022-08-23T06:49:12;18.30;99.90
64689;DHT22;62504;46.070;14.492;2022-08-23T06:51:50;18.40;99.90
64689;DHT22;62504;46.070;14.492;2022-08-23T06:54:19;18.50;99.90
64689;DHT22;62504;46.070;14.492;2022-08-23T06:56:45;18.60;99.90
64689;DHT22;62504;46.070;14.492;2022-08-23T06:59:11;18.30;99.90
64689;DHT22;62504;46.070;14.492;2022-08-23T07:04:18;18.20;99.90
64689;DHT22;62504;46.070;14.492;2022-08-23T07:06:44;18.10;99.90
64689;DHT22;62504;46.070;14.492;2022-08-23T07:09:10;18.30;99.90
64689;DHT22;62504;46.070;14.492;2022-08-23T07:11:37;18.40;99.90
64689;DHT22;62504;46.070;14.492;2022-08-23T07:14:07;18.50;99.90
64689;DHT22;62504;46.070;14.492;2022-08-23T07:16:50;18.20;99.90
64689;DHT22;62504;46.070;14.492;2022-08-23T07:19:19;18.20;99.90
64689;DHT22;62504;46.070;14.492;2022-08-23T07:21:45;18.40;99.90
64689;DHT22;62504;46.070;14.492;2022-08-23T07:24:11;18.50;99.90
64689;DHT22;62504;46.070;14.492;2022-08-23T07:26:39;18.20;99.90
64689;DHT22;62504;46.070;14.492;2022-08-23T07:29:06;18.20;99.90
64689;DHT22;62504;46.070;14.492;2022-08-23T07:31:36;18.50;99.90
64689;DHT22;62504;46.070;14.492;2022-08-23T07:34:04;18.20;99.90
64689;DHT22;62504;46.070;14.492;2022-08-23T07:36:31;18.20;99.90
64689;DHT22;62504;46.070;14.492;2022-08-23T07:38:58;18.30;99.90
64689;DHT22;62504;46.070;14.492;2022-08-23T07:41:26;18.30;99.90
64689;DHT22;62504;46.070;14.492;2022-08-23T07:43:55;18.10;99.90
64689;DHT22;62504;46.070;14.492;2022-08-23T07:46:20;18.40;99.90
64689;DHT22;62504;46.070;14.492;2022-08-23T07:48:46;18.70;99.90
64689;DHT22;62504;46.070;14.492;2022-08-23T07:51:13;18.80;99.90
64689;DHT22;62504;46.070;14.492;2022-08-23T07:53:42;18.90;99.90
64689;DHT22;62504;46.070;14.492;2022-08-23T07:56:09;18.50;99.90
64689;DHT22;62504;46.070;14.492;2022-08-23T07:58:38;18.70;99.90
64689;DHT22;62504;46.070;14.492;2022-08-23T08:01:16;18.90;99.90
64689;DHT22;62504;46.070;14.492;2022-08-23T08:03:43;18.90;99.90
64689;DHT22;62504;46.070;14.492;2022-08-23T08:06:18;18.70;99.90
64689;DHT22;62504;46.070;14.492;2022-08-23T08:08:45;18.50;99.90
64689;DHT22;62504;46.070;14.492;2022-08-23T08:11:12;18.80;99.90
64689;DHT22;62504;46.070;14.492;2022-08-23T08:13:39;18.50;99.90
64689;DHT22;62504;46.070;14.492;2022-08-23T08:16:05;18.70;99.90
64689;DHT22;62504;46.070;14.492;2022-08-23T08:18:33;18.40;99.90
64689;DHT22;62504;46.070;14.492;2022-08-23T08:20:59;18.30;99.90
64689;DHT22;62504;46.070;14.492;2022-08-23T08:23:25;18.60;99.90
64689;DHT22;62504;46.070;14.492;2022-08-23T08:26:04;18.90;99.90
64689;DHT22;62504;46.070;14.492;2022-08-23T08:28:30;19.20;99.90
64689;DHT22;62504;46.070;14.492;2022-08-23T08:30:56;19.30;99.90
64689;DHT22;62504;46.070;14.492;2022-08-23T08:33:24;18.90;99.90
64689;DHT22;62504;46.070;14.492;2022-08-23T08:35:49;19.10;99.90
64689;DHT22;62504;46.070;14.492;2022-08-23T08:38:15;19.40;99.90
64689;DHT22;62504;46.070;14.492;2022-08-23T08:40:41;19.40;99.90
64689;DHT22;62504;46.070;14.492;2022-08-23T08:44:14;19.40;99.90
64689;DHT22;62504;46.070;14.492;2022-08-23T08:46:26;19.50;99.90
64689;DHT22;62504;46.070;14.492;2022-08-23T08:48:57;19.50;99.90
64689;DHT22;62504;46.070;14.492;2022-08-23T08:51:55;19.20;99.90
64689;DHT22;62504;46.070;14.492;2022-08-23T08:54:25;18.90;99.90
64689;DHT22;62504;46.070;14.492;2022-08-23T08:56:54;18.60;99.90
64689;DHT22;62504;46.070;14.492;2022-08-23T08:59:24;19.00;99.90
64689;DHT22;62504;46.070;14.492;2022-08-23T09:01:51;18.90;99.90
64689;DHT22;62504;46.070;14.492;2022-08-23T09:04:17;19.10;99.90
64689;DHT22;62504;46.070;14.492;2022-08-23T09:18:34;19.80;99.90
64689;DHT22;62504;46.070;14.492;2022-08-23T09:21:04;20.10;99.90
64689;DHT22;62504;46.070;14.492;2022-08-23T09:23:47;20.30;99.90
64689;DHT22;62504;46.070;14.492;2022-08-23T09:26:25;20.30;99.90
64689;DHT22;62504;46.070;14.492;2022-08-23T09:28:54;20.10;99.90
64689;DHT22;62504;46.070;14.492;2022-08-23T09:31:41;20.00;99.90
64689;DHT22;62504;46.070;14.492;2022-08-23T09:34:08;20.40;99.90
64689;DHT22;62504;46.070;14.492;2022-08-23T09:36:39;20.10;99.90
64689;DHT22;62504;46.070;14.492;2022-08-23T09:39:26;20.10;99.90
64689;DHT22;62504;46.070;14.492;2022-08-23T09:41:52;20.30;99.90
64689;DHT22;62504;46.070;14.492;2022-08-23T09:44:38;20.40;99.90
64689;DHT22;62504;46.070;14.492;2022-08-23T09:47:09;20.60;99.90
64689;DHT22;62504;46.070;14.492;2022-08-23T09:49:37;20.60;99.90
64689;DHT22;62504;46.070;14.492;2022-08-23T09:52:25;20.40;99.90
64689;DHT22;62504;46.070;14.492;2022-08-23T09:58:02;20.20;99.90
64689;DHT22;62504;46.070;14.492;2022-08-23T10:00:39;20.30;99.90
64689;DHT22;62504;46.070;14.492;2022-08-23T10:05:49;20.40;99.90
64689;DHT22;62504;46.070;14.492;2022-08-23T10:08:27;20.20;99.90
64689;DHT22;62504;46.070;14.492;2022-08-23T10:10:57;20.10;99.90
64689;DHT22;62504;46.070;14.492;2022-08-23T10:13:25;20.50;99.90
64689;DHT22;62504;46.070;14.492;2022-08-23T10:21:26;20.50;99.90
64689;DHT22;62504;46.070;14.492;2022-08-23T10:26:31;20.70;99.90
64689;DHT22;62504;46.070;14.492;2022-08-23T10:40:26;20.60;99.90
64689;DHT22;62504;46.070;14.492;2022-08-23T10:46:16;20.60;99.90
64689;DHT22;62504;46.070;14.492;2022-08-23T10:48:56;20.60;99.90
64689;DHT22;62504;46.070;14.492;2022-08-23T10:51:28;20.70;99.90
64689;DHT22;62504;46.070;14.492;2022-08-23T10:53:58;20.80;99.90
64689;DHT22;62504;46.070;14.492;2022-08-23T10:56:27;20.80;99.90
64689;DHT22;62504;46.070;14.492;2022-08-23T10:59:14;20.80;99.90
64689;DHT22;62504;46.070;14.492;2022-08-23T11:01:46;20.80;99.90
64689;DHT22;62504;46.070;14.492;2022-08-23T11:06:46;20.90;99.90
64689;DHT22;62504;46.070;14.492;2022-08-23T11:14:33;20.90;99.90
64689;DHT22;62504;46.070;14.492;2022-08-23T11:17:03;20.80;99.90
64689;DHT22;62504;46.070;14.492;2022-08-23T11:19:59;20.80;99.90
64689;DHT22;62504;46.070;14.492;2022-08-23T11:22:32;20.80;99.90
64689;DHT22;62504;46.070;14.492;2022-08-23T11:27:34;20.60;99.90
64689;DHT22;62504;46.070;14.492;2022-08-23T11:33:19;20.50;99.90
64689;DHT22;62504;46.070;14.492;2022-08-23T11:38:58;20.70;99.90
64689;DHT22;62504;46.070;14.492;2022-08-23T12:18:42;22.70;99.90
64689;DHT22;62504;46.070;14.492;2022-08-23T12:21:15;22.50;99.90
64689;DHT22;62504;46.070;14.492;2022-08-23T12:23:51;22.10;99.90
64689;DHT22;62504;46.070;14.492;2022-08-23T12:26:33;22.30;99.90
64689;DHT22;62504;46.070;14.492;2022-08-23T12:29:06;22.40;99.90
64689;DHT22;62504;46.070;14.492;2022-08-23T12:34:48;22.60;99.90
64689;DHT22;62504;46.070;14.492;2022-08-23T12:40:08;23.00;99.90
64689;DHT22;62504;46.070;14.492;2022-08-23T12:42:37;22.90;99.90
64689;DHT22;62504;46.070;14.492;2022-08-23T12:45:21;22.90;99.90
64689;DHT22;62504;46.070;14.492;2022-08-23T12:48:00;22.50;99.90
64689;DHT22;62504;46.070;14.492;2022-08-23T12:50:35;22.60;99.90
64689;DHT22;62504;46.070;14.492;2022-08-23T12:53:09;23.00;99.90
64689;DHT22;62504;46.070;14.492;2022-08-23T12:55:44;23.30;99.90
64689;DHT22;62504;46.070;14.492;2022-08-23T12:58:11;23.50;99.90
64689;DHT22;62504;46.070;14.492;2022-08-23T13:00:42;23.60;99.90
64689;DHT22;62504;46.070;14.492;2022-08-23T13:03:23;23.40;99.90
64689;DHT22;62504;46.070;14.492;2022-08-23T13:05:55;23.20;99.90
64689;DHT22;62504;46.070;14.492;2022-08-23T13:08:31;23.20;99.90
64689;DHT22;62504;46.070;14.492;2022-08-23T13:10:57;23.00;99.90
64689;DHT22;62504;46.070;14.492;2022-08-23T13:13:25;22.80;99.90
64689;DHT22;62504;46.070;14.492;2022-08-23T13:15:57;22.80;99.90
64689;DHT22;62504;46.070;14.492;2022-08-23T13:18:25;23.00;99.90
64689;DHT22;62504;46.070;14.492;2022-08-23T13:23:55;23.30;99.90
64689;DHT22;62504;46.070;14.492;2022-08-23T13:26:43;23.00;99.90
64689;DHT22;62504;46.070;14.492;2022-08-23T13:32:00;22.70;99.90
64689;DHT22;62504;46.070;14.492;2022-08-23T13:34:38;23.00;99.90
64689;DHT22;62504;46.070;14.492;2022-08-23T13:39:47;23.00;99.90
64689;DHT22;62504;46.070;14.492;2022-08-23T13:42:22;23.10;99.90
64689;DHT22;62504;46.070;14.492;2022-08-23T13:44:49;23.20;99.90
64689;DHT22;62504;46.070;14.492;2022-08-23T13:47:23;23.40;99.90
64689;DHT22;62504;46.070;14.492;2022-08-23T13:49:50;23.60;99.90
64689;DHT22;62504;46.070;14.492;2022-08-23T13:52:17;23.60;99.90
64689;DHT22;62504;46.070;14.492;2022-08-23T13:54:42;23.70;99.90
64689;DHT22;62504;46.070;14.492;2022-08-23T13:57:14;23.60;99.90
64689;DHT22;62504;46.070;14.492;2022-08-23T13:59:49;23.40;99.90
64689;DHT22;62504;46.070;14.492;2022-08-23T14:02:20;23.40;99.90
64689;DHT22;62504;46.070;14.492;2022-08-23T14:04:46;23.20;99.90
64689;DHT22;62504;46.070;14.492;2022-08-23T14:07:12;23.40;99.90
64689;DHT22;62504;46.070;14.492;2022-08-23T14:09:39;23.40;99.90
64689;DHT22;62504;46.070;14.492;2022-08-23T14:12:11;23.40;99.90
64689;DHT22;62504;46.070;14.492;2022-08-23T14:14:39;23.40;99.90
64689;DHT22;62504;46.070;14.492;2022-08-23T14:17:06;23.40;99.90
64689;DHT22;62504;46.070;14.492;2022-08-23T14:19:32;23.40;99.90
64689;DHT22;62504;46.070;14.492;2022-08-23T14:21:59;23.50;99.90
64689;DHT22;62504;46.070;14.492;2022-08-23T14:24:25;23.30;99.90
64689;DHT22;62504;46.070;14.492;2022-08-23T14:26:51;23.50;99.90
64689;DHT22;62504;46.070;14.492;2022-08-23T14:29:18;23.70;99.90
64689;DHT22;62504;46.070;14.492;2022-08-23T14:31:44;23.80;99.90
64689;DHT22;62504;46.070;14.492;2022-08-23T14:34:10;23.80;99.90
64689;DHT22;62504;46.070;14.492;2022-08-23T14:36:36;23.80;99.90
64689;DHT22;62504;46.070;14.492;2022-08-23T14:39:02;24.10;99.90
64689;DHT22;62504;46.070;14.492;2022-08-23T14:41:29;24.00;99.90
64689;DHT22;62504;46.070;14.492;2022-08-23T14:43:55;24.10;99.90
64689;DHT22;62504;46.070;14.492;2022-08-23T14:46:21;24.00;99.90
64689;DHT22;62504;46.070;14.492;2022-08-23T14:48:47;23.90;99.90
64689;DHT22;62504;46.070;14.492;2022-08-23T14:51:33;23.80;99.90
64689;DHT22;62504;46.070;14.492;2022-08-23T14:54:01;23.80;99.90
64689;DHT22;62504;46.070;14.492;2022-08-23T14:56:29;23.80;99.90
64689;DHT22;62504;46.070;14.492;2022-08-23T14:58:55;23.70;99.90
64689;DHT22;62504;46.070;14.492;2022-08-23T15:01:21;23.60;99.90
64689;DHT22;62504;46.070;14.492;2022-08-23T15:03:48;23.60;99.90
64689;DHT22;62504;46.070;14.492;2022-08-23T15:06:15;23.50;99.90
64689;DHT22;62504;46.070;14.492;2022-08-23T15:08:41;23.60;99.90
64689;DHT22;62504;46.070;14.492;2022-08-23T15:11:09;23.70;99.90
64689;DHT22;62504;46.070;14.492;2022-08-23T15:13:36;23.80;99.90
64689;DHT22;62504;46.070;14.492;2022-08-23T15:16:06;23.60;99.90
64689;DHT22;62504;46.070;14.492;2022-08-23T15:18:33;23.50;99.90
64689;DHT22;62504;46.070;14.492;2022-08-23T15:20:59;23.60;99.90
64689;DHT22;62504;46.070;14.492;2022-08-23T15:23:25;23.70;99.90
64689;DHT22;62504;46.070;14.492;2022-08-23T15:25:52;23.80;99.90
64689;DHT22;62504;46.070;14.492;2022-08-23T15:28:19;23.90;99.90
64689;DHT22;62504;46.070;14.492;2022-08-23T15:30:46;23.80;99.90
64689;DHT22;62504;46.070;14.492;2022-08-23T15:33:13;23.70;99.90
64689;DHT22;62504;46.070;14.492;2022-08-23T15:35:44;23.90;99.90
64689;DHT22;62504;46.070;14.492;2022-08-23T15:38:13;24.00;99.90
64689;DHT22;62504;46.070;14.492;2022-08-23T15:40:38;23.90;99.90
64689;DHT22;62504;46.070;14.492;2022-08-23T15:43:04;24.20;99.90
64689;DHT22;62504;46.070;14.492;2022-08-23T15:45:31;24.30;99.90
64689;DHT22;62504;46.070;14.492;2022-08-23T15:47:59;24.30;99.90
64689;DHT22;62504;46.070;14.492;2022-08-23T15:50:28;24.40;99.90
64689;DHT22;62504;46.070;14.492;2022-08-23T15:52:57;24.40;99.90
64689;DHT22;62504;46.070;14.492;2022-08-23T15:55:28;24.20;99.90
64689;DHT22;62504;46.070;14.492;2022-08-23T15:57:54;24.00;99.90
64689;DHT22;62504;46.070;14.492;2022-08-23T16:00:23;23.80;99.90
64689;DHT22;62504;46.070;14.492;2022-08-23T16:02:50;23.70;99.90
64689;DHT22;62504;46.070;14.492;2022-08-23T16:05:17;23.80;99.90
64689;DHT22;62504;46.070;14.492;2022-08-23T16:07:43;23.70;99.90
64689;DHT22;62504;46.070;14.492;2022-08-23T16:10:10;23.60;99.90
64689;DHT22;62504;46.070;14.492;2022-08-23T16:12:38;23.50;99.90
64689;DHT22;62504;46.070;14.492;2022-08-23T16:15:04;23.40;99.90
64689;DHT22;62504;46.070;14.492;2022-08-23T16:17:30;23.30;99.90
64689;DHT22;62504;46.070;14.492;2022-08-23T16:19:56;23.30;99.90
64689;DHT22;62504;46.070;14.492;2022-08-23T16:22:21;23.30;99.90
64689;DHT22;62504;46.070;14.492;2022-08-23T16:24:47;23.30;99.90
64689;DHT22;62504;46.070;14.492;2022-08-23T16:27:13;23.30;99.90
64689;DHT22;62504;46.070;14.492;2022-08-23T16:29:38;23.20;99.90
64689;DHT22;62504;46.070;14.492;2022-08-23T16:32:06;23.20;99.90
64689;DHT22;62504;46.070;14.492;2022-08-23T16:34:32;23.20;99.90
64689;DHT22;62504;46.070;14.492;2022-08-23T16:37:00;23.20;99.90
64689;DHT22;62504;46.070;14.492;2022-08-23T16:39:27;23.10;99.90
64689;DHT22;62504;46.070;14.492;2022-08-23T16:41:53;23.10;99.90
64689;DHT22;62504;46.070;14.492;2022-08-23T16:44:19;23.00;99.90
64689;DHT22;62504;46.070;14.492;2022-08-23T16:46:45;23.00;99.90
64689;DHT22;62504;46.070;14.492;2022-08-23T16:49:13;23.00;99.90
64689;DHT22;62504;46.070;14.492;2022-08-23T16:51:40;22.90;99.90
64689;DHT22;62504;46.070;14.492;2022-08-23T16:54:06;22.90;99.90
64689;DHT22;62504;46.070;14.492;2022-08-23T16:56:33;22.90;99.90
64689;DHT22;62504;46.070;14.492;2022-08-23T16:58:59;23.00;99.90
64689;DHT22;62504;46.070;14.492;2022-08-23T17:01:25;23.10;99.90
64689;DHT22;62504;46.070;14.492;2022-08-23T17:03:51;23.10;99.90
64689;DHT22;62504;46.070;14.492;2022-08-23T17:06:17;23.10;99.90
64689;DHT22;62504;46.070;14.492;2022-08-23T17:08:42;23.10;99.90
64689;DHT22;62504;46.070;14.492;2022-08-23T17:11:12;23.10;99.90
64689;DHT22;62504;46.070;14.492;2022-08-23T17:13:39;23.00;99.90
64689;DHT22;62504;46.070;14.492;2022-08-23T17:16:06;23.00;99.90
64689;DHT22;62504;46.070;14.492;2022-08-23T17:18:32;23.00;99.90